Time;durP1;ratioP1;P1;durP2;ratioP2;P2;SDS_P1;SDS_P2;PMS_P1;PMS_P2;Temp;Humidity;BMP_temperature;BMP_pressure;BME280_temperature;BME280_humidity;BME280_pressure;Samples;Min_cycle;Max_cycle;Signal;HPM_P1;HPM_P2
2023/08/02 04:22:32;;;;;;;10.73;3.63;;;;;;;16.49;100.00;98971.03;5089490;28;20324;-67
2023/08/02 04:24:58;;;;;;;13.65;4.13;;;;;;;16.50;100.00;98967.31;5089505;28;20544;-66
2023/08/02 04:27:23;;;;;;;8.25;3.58;;;;;;;16.50;100.00;98965.44;5089432;28;20123;-67
2023/08/02 04:29:49;;;;;;;12.55;4.13;;;;;;;16.48;100.00;98950.59;5089008;28;20123;-67
2023/08/02 04:32:14;;;;;;;9.65;4.15;;;;;;;16.49;100.00;98944.16;5089463;28;20090;-66
2023/08/02 04:34:40;;;;;;;8.63;3.40;;;;;;;16.51;100.00;98945.56;5089304;28;20036;-67
2023/08/02 04:37:05;;;;;;;13.80;3.83;;;;;;;16.54;100.00;98934.31;5089378;28;20430;-67
2023/08/02 04:39:30;;;;;;;8.35;3.92;;;;;;;16.46;100.00;98929.34;5088941;28;20040;-67
2023/08/02 04:42:00;;;;;;;9.82;4.47;;;;;;;16.51;100.00;98934.00;5089135;28;20045;-67
2023/08/02 04:44:26;;;;;;;18.80;8.35;;;;;;;16.51;100.00;98931.31;5089069;28;20036;-66
2023/08/02 04:46:51;;;;;;;15.23;5.55;;;;;;;16.46;100.00;98926.66;5089111;28;20037;-66
2023/08/02 04:49:16;;;;;;;20.63;9.10;;;;;;;16.46;100.00;98926.66;5088766;28;20465;-66
2023/08/02 04:51:42;;;;;;;21.95;10.07;;;;;;;16.41;100.00;98926.56;5089047;28;20461;-66
2023/08/02 04:54:07;;;;;;;9.18;3.90;;;;;;;16.37;100.00;98920.06;5088973;28;20047;-66
2023/08/02 04:56:33;;;;;;;8.45;4.22;;;;;;;16.45;100.00;98924.22;5088826;28;20055;-66
2023/08/02 04:58:58;;;;;;;10.48;4.22;;;;;;;16.42;100.00;98922.00;5088578;28;20199;-66
2023/08/02 05:01:23;;;;;;;10.27;3.60;;;;;;;16.43;100.00;98919.09;5089255;28;20044;-66
2023/08/02 05:03:49;;;;;;;26.52;5.13;;;;;;;16.50;100.00;98913.56;5088781;28;20076;-67
2023/08/02 05:06:14;;;;;;;6.78;3.50;;;;;;;16.48;100.00;98919.16;5088639;28;20047;-67
2023/08/02 05:08:40;;;;;;;11.57;4.70;;;;;;;16.43;100.00;98915.56;5088393;28;20036;-66
2023/08/02 05:11:07;;;;;;;6.25;3.33;;;;;;;16.46;100.00;98912.41;5081007;28;20073;-67
2023/08/02 05:13:33;;;;;;;9.32;4.82;;;;;;;16.41;100.00;98915.00;5088476;28;20044;-67
2023/08/02 05:15:58;;;;;;;12.48;5.25;;;;;;;16.38;100.00;98910.94;5088487;28;20043;-67
2023/08/02 05:18:23;;;;;;;9.55;4.47;;;;;;;16.37;100.00;98912.00;5088169;28;20040;-67
2023/08/02 05:20:49;;;;;;;10.77;5.10;;;;;;;16.38;100.00;98908.25;5088351;28;20165;-67
2023/08/02 05:23:15;;;;;;;9.30;3.88;;;;;;;16.33;100.00;98915.41;5088401;28;20036;-67
2023/08/02 05:25:41;;;;;;;7.85;3.63;;;;;;;16.40;100.00;98914.19;5087083;28;20404;-67
2023/08/02 05:28:06;;;;;;;10.65;4.20;;;;;;;16.37;100.00;98909.31;5088208;28;20119;-67
2023/08/02 05:30:32;;;;;;;10.32;4.03;;;;;;;16.41;100.00;98905.06;5088050;28;20062;-67
2023/08/02 05:32:58;;;;;;;9.77;3.70;;;;;;;16.45;100.00;98898.16;5079865;28;20763;-67
2023/08/02 05:35:25;;;;;;;12.35;4.25;;;;;;;16.44;100.00;98891.16;5074634;28;20115;-67
2023/08/02 05:37:52;;;;;;;6.55;3.20;;;;;;;16.49;100.00;98885.84;5074765;28;20035;-67
2023/08/02 05:40:17;;;;;;;9.65;3.40;;;;;;;16.49;100.00;98890.41;5074399;28;20032;-67
2023/08/02 05:42:43;;;;;;;8.68;3.75;;;;;;;16.48;100.00;98892.28;5074465;28;20448;-67
2023/08/02 05:45:09;;;;;;;8.02;3.40;;;;;;;16.48;100.00;98894.97;5074600;28;20048;-67
2023/08/02 05:47:35;;;;;;;8.65;3.88;;;;;;;16.45;100.00;98891.97;5074343;28;20044;-66
2023/08/02 05:50:00;;;;;;;11.35;3.75;;;;;;;16.41;100.00;98888.13;5074144;28;20036;-67
2023/08/02 05:52:25;;;;;;;10.10;4.32;;;;;;;16.49;100.00;98875.09;5074338;28;20109;-67
2023/08/02 05:54:51;;;;;;;9.90;4.20;;;;;;;16.42;100.00;98870.94;5074294;28;20202;-66
2023/08/02 05:57:16;;;;;;;9.88;5.35;;;;;;;16.50;100.00;98873.25;5074231;28;20123;-66
2023/08/02 05:59:42;;;;;;;9.85;4.65;;;;;;;16.48;100.00;98867.28;5074006;28;20064;-67
2023/08/02 06:02:08;;;;;;;7.93;3.75;;;;;;;16.58;100.00;98861.25;5074241;28;20481;-67
2023/08/02 06:04:39;;;;;;;9.05;4.22;;;;;;;16.55;100.00;98857.97;5074056;28;20043;-67
2023/08/02 06:07:04;;;;;;;8.38;3.58;;;;;;;16.55;100.00;98857.97;5074097;28;20412;-67
2023/08/02 06:09:30;;;;;;;6.97;3.38;;;;;;;16.57;100.00;98865.00;5073799;28;20036;-67
2023/08/02 06:11:56;;;;;;;8.40;4.00;;;;;;;16.51;100.00;98851.50;5073959;28;20041;-66
2023/08/02 06:14:21;;;;;;;9.95;3.75;;;;;;;16.51;100.00;98848.81;5074052;28;20044;-67
2023/08/02 06:16:46;;;;;;;7.72;3.80;;;;;;;16.50;100.00;98833.75;5073846;28;20374;-67
2023/08/02 06:19:12;;;;;;;10.15;4.03;;;;;;;16.41;100.00;98827.13;5073685;28;20044;-66
2023/08/02 06:21:37;;;;;;;11.07;3.78;;;;;;;16.49;100.00;98821.34;5073771;28;20045;-66
2023/08/02 06:24:03;;;;;;;10.98;4.20;;;;;;;16.45;100.00;98803.28;5073845;28;20048;-66
2023/08/02 06:26:28;;;;;;;8.55;3.85;;;;;;;16.57;100.00;98805.88;5073620;28;20079;-66
2023/08/02 06:28:55;;;;;;;7.80;3.58;;;;;;;16.60;100.00;98814.25;5073440;28;20037;-66
2023/08/02 06:31:20;;;;;;;9.20;4.03;;;;;;;16.69;100.00;98814.63;5073534;28;20033;-66
2023/08/02 06:33:46;;;;;;;6.03;3.20;;;;;;;16.70;100.00;98801.00;5073628;28;20500;-66
2023/08/02 06:36:12;;;;;;;7.95;3.00;;;;;;;16.81;100.00;98797.34;5072234;28;20093;-67
2023/08/02 06:38:37;;;;;;;6.43;3.42;;;;;;;16.84;100.00;98800.63;5073283;28;20111;-66
2023/08/02 06:41:03;;;;;;;8.48;3.95;;;;;;;16.84;100.00;98801.44;5072054;28;20040;-66
2023/08/02 06:43:29;;;;;;;7.65;3.38;;;;;;;16.90;100.00;98794.25;5073133;28;20115;-67
2023/08/02 06:45:54;;;;;;;6.43;3.97;;;;;;;16.91;100.00;98802.06;5072657;28;20503;-66
2023/08/02 06:48:24;;;;;;;8.82;3.80;;;;;;;16.91;100.00;98793.19;5073120;28;20033;-66
2023/08/02 06:50:51;;;;;;;9.88;4.97;;;;;;;16.94;100.00;98790.81;5073206;28;20033;-66
2023/08/02 06:53:17;;;;;;;7.93;3.15;;;;;;;16.94;100.00;98788.13;5063466;28;20033;-66
2023/08/02 06:55:42;;;;;;;7.65;3.60;;;;;;;16.93;100.00;98781.13;5061238;28;20027;-67
2023/08/02 06:58:07;;;;;;;5.93;3.20;;;;;;;17.00;100.00;98768.28;5047108;28;20029;-67
2023/08/02 07:00:33;;;;;;;5.72;3.03;;;;;;;17.06;100.00;98764.59;5060549;28;20044;-66
2023/08/02 07:03:02;;;;;;;8.70;3.75;;;;;;;17.20;100.00;98766.91;5061836;28;20041;-67
2023/08/02 07:05:29;;;;;;;6.05;3.10;;;;;;;17.30;100.00;98756.25;5062501;28;20048;-67
2023/08/02 07:07:56;;;;;;;9.20;5.13;;;;;;;17.38;100.00;98753.13;5061016;28;20060;-67
2023/08/02 07:10:21;;;;;;;5.93;3.03;;;;;;;17.54;100.00;98746.84;5060948;28;20107;-67
2023/08/02 07:12:48;;;;;;;6.70;3.05;;;;;;;17.58;100.00;98744.44;5062480;28;20117;-66
2023/08/02 07:15:14;;;;;;;7.88;2.97;;;;;;;17.63;100.00;98747.97;5060827;28;20423;-67
2023/08/02 07:17:39;;;;;;;8.80;3.65;;;;;;;17.78;100.00;98746.53;5061408;28;20063;-66
2023/08/02 07:20:06;;;;;;;6.18;3.10;;;;;;;17.74;100.00;98737.34;5061908;28;20033;-67
2023/08/02 07:22:31;;;;;;;6.03;2.90;;;;;;;17.76;100.00;98732.50;5060376;28;20497;-67
2023/08/02 07:24:56;;;;;;;6.32;3.08;;;;;;;17.72;100.00;98724.13;5061761;28;20020;-67
2023/08/02 07:27:22;;;;;;;5.55;2.45;;;;;;;17.79;100.00;98726.59;5061517;28;20537;-66
2023/08/02 07:29:49;;;;;;;7.68;2.67;;;;;;;17.76;100.00;98721.75;5058712;28;20068;-67
2023/08/02 07:32:14;;;;;;;5.40;2.53;;;;;;;17.74;100.00;98713.91;5060419;28;20032;-67
2023/08/02 07:34:40;;;;;;;7.35;2.63;;;;;;;17.78;100.00;98706.13;5061444;28;20039;-67
2023/08/02 07:37:05;;;;;;;6.03;2.63;;;;;;;17.83;100.00;98703.47;5061994;28;20116;-66
2023/08/02 07:39:31;;;;;;;7.35;2.88;;;;;;;17.84;100.00;98705.09;5060660;28;20053;-66
2023/08/02 07:41:56;;;;;;;4.30;2.05;;;;;;;17.88;100.00;98707.03;5061789;28;20481;-66
2023/08/02 07:44:21;;;;;;;5.07;2.83;;;;;;;17.90;100.00;98688.72;5061518;28;20114;-66
2023/08/02 07:46:47;;;;;;;7.05;3.10;;;;;;;17.92;100.00;98684.94;5059962;28;20040;-66
2023/08/02 07:49:12;;;;;;;4.55;2.28;;;;;;;17.83;100.00;98673.84;5061942;28;20120;-66
2023/08/02 07:51:39;;;;;;;4.55;1.98;;;;;;;17.79;100.00;98661.97;5043874;28;20029;-66
2023/08/02 07:54:04;;;;;;;6.57;2.28;;;;;;;17.85;100.00;98663.63;5059379;28;20064;-66
2023/08/02 07:56:29;;;;;;;5.55;2.38;;;;;;;17.88;100.00;98663.94;5061755;28;20068;-67
2023/08/02 07:58:55;;;;;;;6.25;1.90;;;;;;;17.86;100.00;98659.84;5062883;28;20123;-68
2023/08/02 08:01:20;;;;;;;5.70;2.20;;;;;;;17.89;100.00;98657.47;5072159;28;20041;-67
2023/08/02 08:03:46;;;;;;;4.38;2.22;;;;;;;17.90;100.00;98658.28;5065223;28;20033;-66
2023/08/02 08:06:13;;;;;;;4.45;1.77;;;;;;;17.92;100.00;98653.44;5060903;28;20037;-65
2023/08/02 08:08:40;;;;;;;4.28;2.15;;;;;;;17.98;100.00;98657.78;5059827;28;20028;-66
2023/08/02 08:11:05;;;;;;;3.47;1.70;;;;;;;18.01;100.00;98657.28;5059738;28;20397;-65
2023/08/02 08:13:31;;;;;;;3.25;1.92;;;;;;;18.07;100.00;98663.53;5061418;28;20289;-68
2023/08/02 08:15:56;;;;;;;2.75;1.38;;;;;;;18.10;100.00;98663.78;5060930;28;20041;-66
2023/08/02 08:18:21;;;;;;;4.03;2.13;;;;;;;18.15;100.00;98665.72;5059525;28;20037;-66
2023/08/02 08:20:47;;;;;;;3.20;1.40;;;;;;;18.09;100.00;98661.38;5061236;28;20436;-66
2023/08/02 08:23:12;;;;;;;5.82;1.98;;;;;;;18.12;100.00;98653.56;5060395;28;20029;-66
2023/08/02 08:25:37;;;;;;;3.55;1.38;;;;;;;18.09;100.00;98653.28;5065295;28;20397;-67
2023/08/02 08:28:03;;;;;;;6.68;2.10;;;;;;;18.04;100.00;98647.88;5062427;28;20040;-68
2023/08/02 08:30:29;;;;;;;4.00;1.80;;;;;;;17.96;100.00;98641.09;5060767;28;20120;-67
2023/08/02 08:32:54;;;;;;;5.13;2.08;;;;;;;17.99;100.00;98643.25;5059931;28;20166;-66
2023/08/02 08:35:20;;;;;;;4.90;2.33;;;;;;;17.98;100.00;98632.72;5060227;28;20040;-67
2023/08/02 08:37:48;;;;;;;4.25;1.85;;;;;;;17.97;100.00;98631.13;5045660;28;20045;-67
2023/08/02 08:40:17;;;;;;;4.22;1.83;;;;;;;18.00;100.00;98619.84;5060880;28;20044;-66
2023/08/02 08:42:49;;;;;;;6.00;2.90;;;;;;;18.07;100.00;98613.13;5060875;28;20040;-67
2023/08/02 08:45:18;;;;;;;4.30;2.35;;;;;;;18.13;100.00;98603.19;5059881;28;20045;-66
2023/08/02 08:47:45;;;;;;;4.50;2.63;;;;;;;18.21;100.00;98607.28;5041479;28;20520;-66
2023/08/02 08:50:10;;;;;;;5.93;2.30;;;;;;;18.16;100.00;98587.31;5061000;28;20047;-67
2023/08/02 08:52:37;;;;;;;4.78;2.55;;;;;;;18.23;100.00;98592.47;5059830;28;20045;-66
2023/08/02 08:55:04;;;;;;;5.28;2.40;;;;;;;18.29;100.00;98579.81;5059751;28;20040;-67
2023/08/02 08:57:31;;;;;;;5.50;2.60;;;;;;;18.39;100.00;98575.28;5061124;28;20478;-67
2023/08/02 08:59:57;;;;;;;4.15;2.47;;;;;;;18.49;100.00;98577.19;5059823;28;20041;-67
2023/08/02 09:02:23;;;;;;;6.15;2.88;;;;;;;18.53;100.00;98559.41;5044190;28;20041;-64
2023/08/02 09:04:51;;;;;;;5.22;2.65;;;;;;;18.53;100.00;98564.81;5059066;28;20044;-63
2023/08/02 09:07:17;;;;;;;5.55;2.60;;;;;;;18.54;100.00;98562.94;5060791;28;20032;-64
2023/08/02 09:09:42;;;;;;;4.97;2.55;;;;;;;18.51;100.00;98561.56;5064230;28;20106;-64
2023/08/02 09:12:08;;;;;;;6.57;2.92;;;;;;;18.52;100.00;98562.34;5062837;28;20036;-64
2023/08/02 09:14:33;;;;;;;4.60;2.83;;;;;;;18.50;100.00;98559.94;5064616;28;20044;-64
2023/08/02 09:17:01;;;;;;;8.25;3.28;;;;;;;18.41;100.00;98559.66;5063648;28;20064;-64
2023/08/02 09:19:29;;;;;;;5.18;2.50;;;;;;;18.37;100.00;98560.44;5062401;28;20505;-64
2023/08/02 09:22:07;;;;;;;5.68;2.47;;;;;;;18.26;100.00;98559.59;5064312;28;20040;-64
2023/08/02 09:24:35;;;;;;;5.13;2.72;;;;;;;18.20;100.00;98555.28;5062943;28;20037;-64
2023/08/02 09:27:01;;;;;;;5.95;2.45;;;;;;;18.16;100.00;98552.28;5056108;28;20029;-64
2023/08/02 09:29:42;;;;;;;4.90;2.78;;;;;;;18.11;100.00;98554.13;5054675;28;20037;-64
2023/08/02 09:32:08;;;;;;;5.95;2.83;;;;;;;18.13;100.00;98552.81;5054772;28;20048;-64
2023/08/02 09:34:45;;;;;;;4.65;2.60;;;;;;;18.17;100.00;98555.78;5054784;28;20033;-65
2023/08/02 09:37:12;;;;;;;5.05;2.70;;;;;;;18.25;100.00;98554.47;5054734;28;20040;-64
2023/08/02 09:39:38;;;;;;;6.80;2.78;;;;;;;18.32;100.00;98553.16;5054378;28;20132;-65
2023/08/02 09:42:13;;;;;;;5.70;2.60;;;;;;;18.46;100.00;98558.06;5054661;28;20196;-64
2023/08/02 09:44:42;;;;;;;5.95;2.35;;;;;;;18.46;100.00;98550.78;5054504;28;20484;-65
2023/08/02 09:47:09;;;;;;;5.68;2.50;;;;;;;18.43;100.00;98546.72;5054447;28;20453;-65
2023/08/02 09:49:34;;;;;;;5.93;2.50;;;;;;;18.50;100.00;98551.84;5054202;28;20033;-64
2023/08/02 09:52:00;;;;;;;5.57;2.65;;;;;;;18.48;100.00;98547.81;5054389;28;20470;-64
2023/08/02 09:54:25;;;;;;;5.18;2.83;;;;;;;18.44;100.00;98550.22;5054600;28;20064;-64
2023/08/02 09:56:52;;;;;;;4.20;2.20;;;;;;;18.36;100.00;98542.66;5052949;28;20037;-65
2023/08/02 09:59:19;;;;;;;4.30;2.28;;;;;;;18.33;100.00;98537.81;5054097;28;20032;-65
2023/08/02 10:01:47;;;;;;;4.07;2.20;;;;;;;18.24;100.00;98536.69;5054458;28;20047;-65
2023/08/02 10:04:14;;;;;;;4.18;2.22;;;;;;;18.18;100.00;98531.25;5054254;28;20051;-64
2023/08/02 10:06:46;;;;;;;5.40;2.40;;;;;;;18.19;100.00;98529.38;5054196;28;20059;-65
2023/08/02 10:09:19;;;;;;;4.43;2.60;;;;;;;18.18;100.00;98528.56;5053711;28;20036;-64
2023/08/02 10:12:08;;;;;;;7.13;2.60;;;;;;;18.16;100.00;98528.03;5052843;28;20041;-64
2023/08/02 10:14:33;;;;;;;3.78;2.00;;;;;;;18.15;100.00;98525.59;5054026;28;20039;-65
2023/08/02 10:17:02;;;;;;;4.45;2.03;;;;;;;18.13;100.00;98519.69;5053972;28;20424;-65
2023/08/02 10:19:29;;;;;;;5.15;3.10;;;;;;;18.07;100.00;98526.13;5053591;28;20065;-64
2023/08/02 10:21:57;;;;;;;5.22;2.40;;;;;;;18.06;100.00;98516.38;5053785;28;20128;-64
2023/08/02 10:24:27;;;;;;;6.68;2.33;;;;;;;18.04;100.00;98508.59;5053785;28;20394;-64
2023/08/02 10:26:55;;;;;;;4.35;2.55;;;;;;;18.04;100.00;98505.88;5053837;28;20032;-65
2023/08/02 10:29:23;;;;;;;3.30;2.10;;;;;;;18.05;100.00;98493.22;5053598;28;20037;-64
2023/08/02 10:31:49;;;;;;;6.18;2.45;;;;;;;18.10;100.00;98483.28;5053713;28;20064;-64
2023/08/02 10:34:35;;;;;;;3.88;2.10;;;;;;;18.13;100.00;98493.53;5053632;28;20064;-65
2023/08/02 10:37:01;;;;;;;4.93;2.58;;;;;;;18.21;100.00;98483.31;5053745;28;20029;-64
2023/08/02 10:39:45;;;;;;;6.60;2.28;;;;;;;18.30;100.00;98481.72;5053254;28;20553;-65
2023/08/02 10:42:15;;;;;;;3.90;2.10;;;;;;;18.36;100.00;98483.34;5053628;28;20049;-65
2023/08/02 10:45:10;;;;;;;7.28;2.85;;;;;;;18.44;100.00;98474.72;5061329;28;20028;-64
2023/08/02 10:47:35;;;;;;;4.40;2.70;;;;;;;18.53;100.00;98473.16;5072328;28;20076;-64
2023/08/02 10:50:02;;;;;;;6.53;3.45;;;;;;;18.55;100.00;98471.00;5072976;28;20068;-65
2023/08/02 10:52:33;;;;;;;5.70;2.72;;;;;;;18.59;100.00;98455.91;5073302;28;20040;-64
2023/08/02 10:55:10;;;;;;;3.72;2.80;;;;;;;18.63;100.00;98459.66;5073085;28;20040;-65
2023/08/02 10:57:36;;;;;;;5.60;2.40;;;;;;;18.70;100.00;98457.53;5073287;28;20037;-65
2023/08/02 11:00:16;;;;;;;4.87;2.70;;;;;;;18.70;100.00;98446.75;5072933;28;20044;-65
2023/08/02 11:02:46;;;;;;;3.58;2.40;;;;;;;18.78;100.00;98452.69;5073239;28;20060;-65
2023/08/02 11:05:13;;;;;;;7.35;2.60;;;;;;;18.84;100.00;98447.00;5072916;28;20044;-64
2023/08/02 11:07:39;;;;;;;3.63;2.55;;;;;;;18.87;100.00;98441.09;5073161;28;20444;-65
2023/08/02 11:10:05;;;;;;;6.60;3.60;;;;;;;18.89;100.00;98444.31;5072453;28;20049;-64
2023/08/02 11:12:32;;;;;;;4.93;3.03;;;;;;;18.88;100.00;98447.28;5072913;28;20036;-64
2023/08/02 11:14:57;;;;;;;4.97;3.20;;;;;;;18.88;100.00;98445.41;5072821;28;20051;-64
2023/08/02 11:17:23;;;;;;;5.43;2.80;;;;;;;18.88;100.00;98447.28;5072763;28;20028;-65
2023/08/02 11:19:50;;;;;;;5.95;3.05;;;;;;;18.90;100.00;98448.63;5072537;28;20468;-65
2023/08/02 11:22:16;;;;;;;;;;;;;;;18.91;100.00;98444.06;5073043;28;20036;-65
2023/08/02 11:24:42;;;;;;;6.05;3.80;;;;;;;18.94;100.00;98451.63;5072595;28;20414;-64
2023/08/02 11:27:08;;;;;;;6.30;3.50;;;;;;;18.94;100.00;98446.22;5072049;28;20071;-64
2023/08/02 11:29:34;;;;;;;7.10;3.83;;;;;;;18.94;100.00;98440.81;5072372;28;20041;-64
2023/08/02 11:32:04;;;;;;;5.53;3.70;;;;;;;18.93;100.00;98437.31;5071989;28;20059;-64
2023/08/02 11:34:35;;;;;;;6.95;3.72;;;;;;;18.95;100.00;98445.94;5071383;28;20040;-65
2023/08/02 11:37:02;;;;;;;5.60;4.00;;;;;;;18.95;100.00;98439.75;5072334;28;20056;-65
2023/08/02 11:39:27;;;;;;;9.38;4.50;;;;;;;18.97;100.00;98437.56;5072425;28;20074;-65
2023/08/02 11:42:11;;;;;;;8.50;4.10;;;;;;;18.98;100.00;98436.50;5072456;28;20398;-64
2023/08/02 11:44:36;;;;;;;6.05;4.07;;;;;;;18.98;100.00;98437.31;5072573;28;20045;-64
2023/08/02 11:47:02;;;;;;;11.38;4.20;;;;;;;19.01;100.00;98437.84;5072191;28;20045;-64
2023/08/02 11:49:27;;;;;;;6.22;4.35;;;;;;;18.96;100.00;98439.47;5070914;28;20037;-64
2023/08/02 11:51:52;;;;;;;5.75;3.75;;;;;;;18.98;100.00;98426.53;5072182;28;20037;-65
2023/08/02 11:54:19;;;;;;;7.03;3.92;;;;;;;18.95;100.00;98410.06;5072300;28;20512;-64
2023/08/02 11:56:45;;;;;;;6.13;4.07;;;;;;;19.07;100.00;98417.88;5072180;28;20113;-65
2023/08/02 11:59:11;;;;;;;6.57;3.92;;;;;;;19.25;100.00;98422.69;5071969;28;20477;-64
2023/08/02 12:01:42;;;;;;;7.45;4.20;;;;;;;19.29;100.00;98409.44;5072169;28;20040;-65
2023/08/02 12:04:08;;;;;;;5.40;3.47;;;;;;;19.29;100.00;98415.66;5072022;28;20039;-65
2023/08/02 12:07:06;;;;;;;8.35;4.18;;;;;;;19.34;100.00;98407.56;5071987;28;20067;-64
2023/08/02 12:09:40;;;;;;;5.70;4.03;;;;;;;19.37;100.00;98401.63;5048734;28;20048;-64
2023/08/02 12:12:06;;;;;;;9.48;4.30;;;;;;;19.42;100.00;98406.16;5071893;28;20033;-65
2023/08/02 12:14:31;;;;;;;7.57;4.07;;;;;;;19.42;100.00;98403.47;5072050;28;20041;-65
2023/08/02 12:16:56;;;;;;;8.80;4.18;;;;;;;19.48;100.00;98381.56;5071838;28;20037;-65
2023/08/02 12:19:39;;;;;;;5.65;4.07;;;;;;;19.57;100.00;98395.34;5071669;28;20080;-65
2023/08/02 12:22:05;;;;;;;7.20;4.25;;;;;;;19.64;100.00;98398.56;5071837;28;20393;-65
2023/08/02 12:24:30;;;;;;;5.38;3.67;;;;;;;19.70;100.00;98400.16;5071974;28;20043;-65
2023/08/02 12:26:55;;;;;;;6.82;3.58;;;;;;;19.67;100.00;98411.50;5071723;28;20115;-64
2023/08/02 12:29:23;;;;;;;7.20;4.28;;;;;;;19.68;100.00;98404.22;5070375;28;20087;-65
2023/08/02 12:31:49;;;;;;;6.68;3.20;;;;;;;19.76;100.00;98396.34;5071832;28;20157;-64
2023/08/02 12:34:14;;;;;;;6.35;4.35;;;;;;;19.82;100.00;98393.59;5071820;28;20123;-65
2023/08/02 12:36:39;;;;;;;8.43;4.38;;;;;;;19.97;100.00;98398.94;5071638;28;20032;-65
2023/08/02 12:39:05;;;;;;;6.63;3.70;;;;;;;20.04;100.00;98402.16;5070223;28;20029;-65
2023/08/02 12:41:31;;;;;;;6.47;3.67;;;;;;;20.14;100.00;98412.88;5071636;28;20489;-64
2023/08/02 12:43:57;;;;;;;4.85;3.47;;;;;;;20.20;100.00;98405.56;5075079;28;20032;-65
2023/08/02 12:46:22;;;;;;;5.70;3.38;;;;;;;20.19;100.00;98407.44;5075594;28;20614;-64
2023/08/02 12:48:51;;;;;;;5.40;3.20;;;;;;;20.13;100.00;98411.28;5075471;28;20093;-65
2023/08/02 12:51:16;;;;;;;5.53;3.47;;;;;;;20.12;100.00;98409.66;5075540;28;20040;-64
2023/08/02 12:53:42;;;;;;;6.55;3.72;;;;;;;20.15;100.00;98392.91;5075776;28;20040;-64
2023/08/02 12:56:08;;;;;;;5.22;3.53;;;;;;;20.28;100.00;98388.75;5075311;28;20043;-65
2023/08/02 12:58:33;;;;;;;4.90;3.53;;;;;;;20.40;100.00;98382.97;5075174;28;20393;-65
2023/08/02 13:00:58;;;;;;;7.78;3.90;;;;;;;20.36;100.00;98376.53;5074185;28;20037;-64
2023/08/02 13:03:24;;;;;;;9.10;4.15;;;;;;;20.31;100.00;98371.97;5075497;28;20045;-64
2023/08/02 13:05:49;;;;;;;6.22;3.53;;;;;;;20.26;100.00;98374.69;5075385;28;20043;-64
2023/08/02 13:08:16;;;;;;;6.72;3.42;;;;;;;20.22;100.00;98373.66;5075179;28;20107;-63
2023/08/02 13:10:42;;;;;;;5.10;3.35;;;;;;;20.24;100.00;98366.06;5075270;28;20068;-64
2023/08/02 13:13:07;;;;;;;5.72;3.45;;;;;;;20.25;100.00;98363.09;5075225;28;20099;-64
2023/08/02 13:15:33;;;;;;;6.72;3.90;;;;;;;20.28;100.00;98367.13;5075200;28;20060;-64
2023/08/02 13:17:59;;;;;;;6.40;3.53;;;;;;;20.33;100.00;98376.00;5075149;28;20040;-64
2023/08/02 13:20:25;;;;;;;6.68;3.78;;;;;;;20.45;100.00;98362.16;5074680;28;20542;-64
2023/08/02 13:22:50;;;;;;;7.68;3.83;;;;;;;20.53;100.00;98364.22;5070566;28;20036;-64
2023/08/02 13:25:16;;;;;;;5.55;3.20;;;;;;;20.71;100.00;98357.31;5054876;28;20045;-63
2023/08/02 13:27:42;;;;;;;5.43;3.13;;;;;;;21.15;100.00;98337.41;5054932;28;20048;-63
2023/08/02 13:30:08;;;;;;;5.35;3.67;;;;;;;21.39;100.00;98319.28;5054702;28;20076;-65
2023/08/02 13:32:34;;;;;;;5.10;2.75;;;;;;;21.83;100.00;98326.25;5054700;28;20037;-64
2023/08/02 13:35:04;;;;;;;5.93;3.00;;;;;;;21.57;100.00;98306.81;5054915;28;20061;-64
2023/08/02 13:37:29;;;;;;;8.13;3.10;;;;;;;21.50;100.00;98311.00;5054690;28;20044;-64
2023/08/02 13:39:55;;;;;;;5.38;2.92;;;;;;;21.40;100.00;98295.69;5054503;28;20481;-63
2023/08/02 13:42:23;;;;;;;6.22;3.00;;;;;;;21.30;100.00;98295.81;5054730;28;20490;-63
2023/08/02 13:44:54;;;;;;;4.70;3.15;;;;;;;21.45;100.00;98281.25;5054714;28;20049;-64
2023/08/02 13:47:20;;;;;;;8.73;4.13;;;;;;;21.50;100.00;98290.13;5054467;28;20032;-63
2023/08/02 13:49:45;;;;;;;6.38;3.58;;;;;;;21.49;100.00;98290.44;5054498;28;20021;-64
2023/08/02 13:52:11;;;;;;;6.25;3.75;;;;;;;21.52;100.00;98285.25;5054454;28;20048;-64
2023/08/02 13:54:36;;;;;;;6.95;3.25;;;;;;;21.57;100.00;98276.22;5054119;28;20041;-64
2023/08/02 13:57:02;;;;;;;5.65;3.30;;;;;;;21.63;100.00;98275.06;5054592;28;20454;-65
2023/08/02 13:59:28;;;;;;;6.25;3.28;;;;;;;21.69;100.00;98279.31;5054235;28;20136;-65
2023/08/02 14:01:53;;;;;;;6.53;3.22;;;;;;;21.68;100.00;98289.34;5054367;28;20040;-66
2023/08/02 14:04:18;;;;;;;4.97;2.95;;;;;;;21.65;100.00;98287.22;5053113;28;20114;-65
2023/08/02 14:06:44;;;;;;;6.00;3.10;;;;;;;21.65;100.00;98286.44;5054262;28;20464;-65
2023/08/02 14:09:09;;;;;;;5.95;3.30;;;;;;;21.70;100.00;98285.53;5054006;28;20098;-65
2023/08/02 14:11:35;;;;;;;5.63;3.25;;;;;;;21.74;100.00;98289.28;5054276;28;20044;-64
2023/08/02 14:14:00;;;;;;;5.10;2.83;;;;;;;21.61;100.00;98286.19;5054202;28;20081;-66
2023/08/02 14:16:26;;;;;;;7.65;3.60;;;;;;;21.58;100.00;98273.25;5054056;28;20045;-66
2023/08/02 14:18:51;;;;;;;9.40;3.40;;;;;;;21.57;100.00;98268.09;5053672;28;20033;-65
2023/08/02 14:21:16;;;;;;;7.28;3.25;;;;;;;21.58;100.00;98261.56;5053867;28;20033;-65
2023/08/02 14:23:42;;;;;;;5.82;3.05;;;;;;;21.49;100.00;98255.22;5053899;28;20086;-65
2023/08/02 14:26:07;;;;;;;9.27;3.28;;;;;;;21.48;100.00;98259.84;5053774;28;20509;-65
2023/08/02 14:28:33;;;;;;;5.45;3.20;;;;;;;21.48;100.00;98254.41;5053431;28;20044;-66
2023/08/02 14:31:00;;;;;;;5.88;2.90;;;;;;;21.34;100.00;98250.81;5053765;28;20128;-65
2023/08/02 14:33:25;;;;;;;5.93;3.03;;;;;;;21.30;100.00;98257.91;5053705;28;20036;-65
2023/08/02 14:35:51;;;;;;;5.80;2.83;;;;;;;21.30;100.00;98245.19;5053607;28;20070;-66
2023/08/02 14:38:16;;;;;;;6.25;2.70;;;;;;;21.27;100.00;98247.66;5053203;28;20044;-66
2023/08/02 14:40:42;;;;;;;5.45;2.88;;;;;;;21.25;100.00;98256.03;5053519;28;20448;-66
2023/08/02 14:43:08;;;;;;;6.35;2.97;;;;;;;21.25;100.00;98249.81;5053363;28;20044;-65
2023/08/02 14:45:33;;;;;;;4.03;2.55;;;;;;;21.24;100.00;98249.00;5053355;28;20048;-64
2023/08/02 14:47:59;;;;;;;6.30;3.28;;;;;;;21.28;100.00;98247.38;5053368;28;20040;-65
2023/08/02 14:50:26;;;;;;;7.40;3.92;;;;;;;21.33;100.00;98239.19;5052955;28;20037;-65
2023/08/02 14:52:52;;;;;;;6.43;3.40;;;;;;;21.39;100.00;98229.91;5053079;28;20052;-64
2023/08/02 14:55:18;;;;;;;7.05;3.45;;;;;;;21.40;100.00;98219.88;5053147;28;20033;-65
2023/08/02 14:57:43;;;;;;;7.22;3.75;;;;;;;21.55;100.00;98216.13;5053342;28;20041;-66
2023/08/02 15:00:09;;;;;;;5.97;3.13;;;;;;;21.64;100.00;98211.66;5052890;28;20410;-65
2023/08/02 15:02:36;;;;;;;9.35;3.22;;;;;;;21.72;100.00;98216.41;5052998;28;20037;-65
2023/08/02 15:05:03;;;;;;;10.55;3.40;;;;;;;21.88;100.00;98219.69;5052266;28;20036;-64
2023/08/02 15:07:28;;;;;;;5.07;2.53;;;;;;;22.03;100.00;98210.47;5052924;28;20068;-65
2023/08/02 15:09:53;;;;;;;8.02;2.85;;;;;;;22.05;100.00;98209.09;5052845;28;20484;-66
2023/08/02 15:12:19;;;;;;;7.38;3.00;;;;;;;22.08;100.00;98197.66;5053044;28;20128;-65
2023/08/02 15:14:44;;;;;;;6.30;2.90;;;;;;;22.07;100.00;98217.72;5052829;28;20090;-65
2023/08/02 15:17:10;;;;;;;6.75;3.08;;;;;;;22.03;100.00;98196.94;5052848;28;20031;-63
2023/08/02 15:19:35;;;;;;;7.47;3.33;;;;;;;22.09;100.00;98191.16;5052416;28;20060;-64
2023/08/02 15:22:01;;;;;;;8.77;2.97;;;;;;;22.20;100.00;98189.06;5052711;28;20043;-64
2023/08/02 15:24:26;;;;;;;5.68;2.88;;;;;;;22.26;100.00;98177.03;5052687;28;20037;-65
2023/08/02 15:26:52;;;;;;;8.68;2.83;;;;;;;22.34;100.00;98162.78;5051499;28;20117;-64
2023/08/02 15:29:17;;;;;;;6.25;2.92;;;;;;;22.38;100.00;98144.00;5051252;28;20453;-66
2023/08/02 15:31:43;;;;;;;5.47;3.05;;;;;;;22.51;100.00;98145.13;5052625;28;20454;-63
2023/08/02 15:34:12;;;;;;;9.57;3.70;;;;;;;22.52;100.00;98135.88;5052552;28;20071;-65
2023/08/02 15:36:37;;;;;;;6.30;3.13;;;;;;;22.64;100.00;98139.69;5052397;28;20465;-65
2023/08/02 15:39:03;;;;;;;9.10;3.15;;;;;;;22.68;100.00;98145.28;5052131;28;20128;-63
2023/08/02 15:41:31;;;;;;;8.32;4.32;;;;;;;22.65;100.00;98127.72;5052455;28;20024;-64
2023/08/02 15:43:57;;;;;;;7.78;3.58;;;;;;;22.63;100.00;98126.44;5052143;28;20045;-64